createdAt,value
2023-02-06T00:00:42.422Z,100649.72
2023-02-06T00:03:15.506Z,100652.23
2023-02-06T00:06:00.043Z,100657.75
2023-02-06T00:08:34.818Z,100656.65
2023-02-06T00:11:10.347Z,100654.47
2023-02-06T00:13:44.674Z,100655.59
2023-02-06T00:16:24.057Z,100658.37
2023-02-06T00:18:59.430Z,100658.37
2023-02-06T00:21:33.007Z,100655.97
2023-02-06T00:24:07.212Z,100650.84
2023-02-06T00:26:41.078Z,100657.98
2023-02-06T00:29:13.982Z,100655.25
2023-02-06T00:31:47.002Z,100652.52
2023-02-06T00:34:20.099Z,100655.47
2023-02-06T00:36:54.177Z,100658.94
2023-02-06T00:39:28.400Z,100657.27
2023-02-06T00:42:01.246Z,100656.92
2023-02-06T00:44:34.063Z,100655.81
2023-02-06T00:47:07.060Z,100650.17
2023-02-06T00:49:40.174Z,100647.95
2023-02-06T00:52:13.049Z,100646.55
2023-02-06T00:54:46.537Z,100648.77
2023-02-06T00:57:19.499Z,100645.88
2023-02-06T00:59:54.625Z,100649.58
2023-02-06T01:02:27.644Z,100645.56
2023-02-06T01:05:00.900Z,100645.40
2023-02-06T01:07:37.004Z,100646.16
2023-02-06T01:10:11.358Z,100650.36
2023-02-06T01:12:44.893Z,100658.39
2023-02-06T01:15:18.363Z,100652.91
2023-02-06T01:17:51.657Z,100647.39
2023-02-06T01:20:24.985Z,100649.39
2023-02-06T01:22:57.980Z,100645.38
2023-02-06T01:25:31.279Z,100639.37
2023-02-06T01:28:05.230Z,100653.86
2023-02-06T01:30:38.753Z,100645.45
2023-02-06T01:33:12.620Z,100647.67
2023-02-06T01:35:45.507Z,100653.59
2023-02-06T01:38:18.845Z,100648.17
2023-02-06T01:40:52.080Z,100648.17
2023-02-06T01:43:25.145Z,100653.86
2023-02-06T01:45:58.546Z,100659.38
2023-02-06T01:48:38.472Z,100651.30
2023-02-06T01:51:18.472Z,100651.11
2023-02-06T01:53:55.584Z,100657.14
2023-02-06T01:56:31.546Z,100654.20
2023-02-06T01:59:05.749Z,100650.35
2023-02-06T02:01:38.964Z,100655.48
2023-02-06T02:04:16.453Z,100649.83
2023-02-06T02:07:06.363Z,100651.84
2023-02-06T02:09:39.433Z,100654.80
2023-02-06T02:12:13.180Z,100654.45
2023-02-06T02:14:49.629Z,100655.52
2023-02-06T02:17:41.772Z,100654.41
2023-02-06T02:20:53.000Z,100654.41
2023-02-06T02:23:42.440Z,100664.11
2023-02-06T02:26:32.585Z,100665.44
2023-02-06T02:29:12.879Z,100664.76
2023-02-06T02:32:02.558Z,100666.43
2023-02-06T02:35:10.668Z,100661.18
2023-02-06T02:38:03.399Z,100671.09
2023-02-06T02:41:06.205Z,100671.27
2023-02-06T02:44:01.013Z,100666.91
2023-02-06T02:46:44.086Z,100671.48
2023-02-06T02:49:23.380Z,100674.77
2023-02-06T02:51:57.207Z,100680.50
2023-02-06T02:54:30.189Z,100677.21
2023-02-06T02:57:15.414Z,100678.49
2023-02-06T02:59:49.733Z,100684.00
2023-02-06T03:02:29.968Z,100682.33
2023-02-06T03:05:09.592Z,100687.46
2023-02-06T03:08:03.900Z,100686.18
2023-02-06T03:10:44.121Z,100682.33
2023-02-06T03:13:39.082Z,100675.92
2023-02-06T03:16:49.054Z,100677.77
2023-02-06T03:19:26.160Z,100678.36
2023-02-06T03:21:59.654Z,100681.48
2023-02-06T03:24:35.934Z,100686.98
2023-02-06T03:27:12.873Z,100689.03
2023-02-06T03:29:46.352Z,100684.47
2023-02-06T03:32:37.911Z,100690.87
2023-02-06T03:35:22.170Z,100687.80
2023-02-06T03:37:55.438Z,100686.52
2023-02-06T03:40:30.617Z,100687.66
2023-02-06T03:43:05.779Z,100693.30
2023-02-06T03:45:42.413Z,100689.45
2023-02-06T03:48:22.663Z,100683.64
2023-02-06T03:50:57.132Z,100680.91
2023-02-06T03:53:31.174Z,100684.75
2023-02-06T03:56:08.756Z,100687.83
2023-02-06T03:58:42.280Z,100692.23
2023-02-06T04:01:16.182Z,100695.00
2023-02-06T04:03:49.690Z,100694.23
2023-02-06T04:06:22.822Z,100704.31
2023-02-06T04:08:55.829Z,100710.37
2023-02-06T04:11:28.829Z,100712.23
2023-02-06T04:14:02.566Z,100722.31
2023-02-06T04:16:36.127Z,100726.33
2023-02-06T04:19:08.953Z,100732.38
2023-02-06T04:21:41.719Z,100729.65
2023-02-06T04:24:15.093Z,100728.71
2023-02-06T04:26:48.012Z,100729.09
2023-02-06T04:29:21.050Z,100728.92
2023-02-06T04:31:53.788Z,100725.63
2023-02-06T04:34:26.630Z,100726.19
2023-02-06T04:36:59.690Z,100728.92
2023-02-06T04:39:32.758Z,100736.22
2023-02-06T04:42:05.959Z,100726.36
2023-02-06T04:44:39.165Z,100731.48
2023-02-06T04:47:12.220Z,100733.66
2023-02-06T04:49:44.950Z,100728.19
2023-02-06T04:52:17.868Z,100732.94
2023-02-06T04:54:51.111Z,100731.86
2023-02-06T04:57:24.562Z,100731.30
2023-02-06T04:59:57.455Z,100733.52
2023-02-06T05:02:30.304Z,100741.41
2023-02-06T05:05:03.279Z,100738.33
2023-02-06T05:07:37.405Z,100746.00
2023-02-06T05:10:11.708Z,100751.12
2023-02-06T05:12:46.268Z,100746.73
2023-02-06T05:15:19.585Z,100748.77
2023-02-06T05:17:53.097Z,100745.10
2023-02-06T05:20:26.178Z,100753.16
2023-02-06T05:23:00.237Z,100759.00
2023-02-06T05:25:33.561Z,100753.71
2023-02-06T05:28:07.702Z,100768.00
2023-02-06T05:30:41.016Z,100759.94
2023-02-06T05:33:14.116Z,100763.05
2023-02-06T05:35:47.279Z,100765.06
2023-02-06T05:38:20.886Z,100769.60
2023-02-06T05:40:54.126Z,100776.00
2023-02-06T05:43:26.896Z,100772.72
2023-02-06T05:46:00.128Z,100770.16
2023-02-06T05:48:35.156Z,100778.91
2023-02-06T05:51:08.205Z,100771.44
2023-02-06T05:53:41.177Z,100771.81
2023-02-06T05:56:14.117Z,100774.00
2023-02-06T05:58:47.681Z,100770.33
2023-02-06T06:01:20.498Z,100773.80
2023-02-06T06:03:53.407Z,100774.91
2023-02-06T06:06:26.196Z,100780.72
2023-02-06T06:09:01.079Z,100775.98
2023-02-06T06:11:34.265Z,100774.31
2023-02-06T06:14:07.416Z,100784.73
2023-02-06T06:16:42.162Z,100784.56
2023-02-06T06:19:14.091Z,100790.06
2023-02-06T06:21:46.988Z,100792.25
2023-02-06T06:24:20.741Z,100795.71
2023-02-06T06:26:53.533Z,100788.90
2023-02-06T06:29:27.485Z,100795.48
2023-02-06T06:32:00.221Z,100784.66
2023-02-06T06:34:33.176Z,100789.02
2023-02-06T06:37:06.769Z,100791.73
2023-02-06T06:39:39.507Z,100797.38
2023-02-06T06:42:12.308Z,100796.81
2023-02-06T06:44:45.287Z,100803.95
2023-02-06T06:47:18.368Z,100807.27
2023-02-06T06:49:51.303Z,100806.34
2023-02-06T06:52:25.747Z,100803.95
2023-02-06T06:54:59.248Z,100801.59
2023-02-06T06:57:35.481Z,100803.95
2023-02-06T07:00:10.502Z,100798.63
2023-02-06T07:02:43.624Z,100802.09
2023-02-06T07:05:16.545Z,100801.50
2023-02-06T07:07:50.221Z,100799.31
2023-02-06T07:10:23.284Z,100798.94
2023-02-06T07:12:56.962Z,100808.25
2023-02-06T07:15:30.139Z,100808.98
2023-02-06T07:18:03.722Z,100805.89
2023-02-06T07:20:38.322Z,100805.34
2023-02-06T07:23:11.792Z,100805.34
2023-02-06T07:25:44.943Z,100801.12
2023-02-06T07:28:18.074Z,100809.33
2023-02-06T07:30:51.004Z,100809.08
2023-02-06T07:33:24.046Z,100801.35
2023-02-06T07:35:57.114Z,100807.00
2023-02-06T07:38:30.374Z,100800.89
2023-02-06T07:41:04.333Z,100801.97
2023-02-06T07:43:39.711Z,100804.35
2023-02-06T07:46:12.780Z,100795.17
2023-02-06T07:48:45.760Z,100797.52
2023-02-06T07:51:18.628Z,100798.20
2023-02-06T07:53:51.441Z,100799.09
2023-02-06T07:56:25.516Z,100797.95
2023-02-06T07:58:58.394Z,100802.26
2023-02-06T08:01:31.559Z,100800.38
2023-02-06T08:04:04.790Z,100796.65
2023-02-06T08:06:37.704Z,100803.22
2023-02-06T08:09:19.457Z,100800.02
2023-02-06T08:11:55.583Z,100796.31
2023-02-06T08:14:28.993Z,100803.63
2023-02-06T08:17:02.021Z,100811.16
2023-02-06T08:19:34.998Z,100808.99
2023-02-06T08:22:08.086Z,100796.37
2023-02-06T08:24:41.094Z,100808.81
2023-02-06T08:27:14.079Z,100805.97
2023-02-06T08:29:47.704Z,100806.32
2023-02-06T08:32:20.671Z,100797.50
2023-02-06T08:34:53.944Z,100796.04
2023-02-06T08:37:26.684Z,100789.78
2023-02-06T08:39:59.679Z,100783.16
2023-02-06T08:42:33.413Z,100785.55
2023-02-06T08:45:06.627Z,100778.75
2023-02-06T08:47:40.752Z,100782.55
2023-02-06T08:50:13.932Z,100773.33
2023-02-06T08:52:46.796Z,100770.88
2023-02-06T08:55:20.268Z,100774.38
2023-02-06T08:57:55.120Z,100771.59
2023-02-06T09:00:28.220Z,100762.50
2023-02-06T09:03:01.475Z,100758.41
2023-02-06T09:05:34.976Z,100762.86
2023-02-06T09:08:08.149Z,100754.44
2023-02-06T09:10:41.497Z,100751.72
2023-02-06T09:13:14.376Z,100755.68
2023-02-06T09:15:54.939Z,100750.25
2023-02-06T09:18:27.503Z,100740.30
2023-02-06T09:21:11.692Z,100736.67
2023-02-06T09:23:48.308Z,100735.56
2023-02-06T09:26:25.171Z,100735.56
2023-02-06T09:29:00.683Z,100735.97
2023-02-06T09:31:33.824Z,100745.28
2023-02-06T09:34:08.673Z,100741.73
2023-02-06T09:36:41.477Z,100750.60
2023-02-06T09:39:14.332Z,100748.71
2023-02-06T09:41:52.448Z,100744.80
2023-02-06T09:44:44.221Z,100739.33
2023-02-06T09:47:35.359Z,100738.47
2023-02-06T09:50:46.030Z,100746.34
2023-02-06T09:53:30.464Z,100740.75
2023-02-06T09:56:36.064Z,100742.61
2023-02-06T09:59:14.428Z,100744.42
2023-02-06T10:02:23.672Z,100746.14
2023-02-06T10:05:23.269Z,100743.73
2023-02-06T10:08:20.771Z,100741.52
2023-02-06T10:11:02.890Z,100749.66
2023-02-06T10:13:43.883Z,100753.02
2023-02-06T10:16:30.497Z,100750.46
2023-02-06T10:19:25.266Z,100749.23
2023-02-06T10:22:10.193Z,100746.83
2023-02-06T10:24:49.473Z,100747.05
2023-02-06T10:27:22.324Z,100753.30
2023-02-06T10:29:55.424Z,100752.02
2023-02-06T10:32:35.785Z,100754.75
2023-02-06T10:35:25.353Z,100752.56
2023-02-06T10:38:23.793Z,100759.09
2023-02-06T10:41:06.984Z,100751.34
2023-02-06T10:43:53.949Z,100749.11
2023-02-06T10:46:46.429Z,100752.95
2023-02-06T10:49:28.244Z,100760.09
2023-02-06T10:52:05.352Z,100760.42
2023-02-06T10:54:46.630Z,100763.89
2023-02-06T10:57:24.142Z,100755.31
2023-02-06T11:00:02.599Z,100766.18
2023-02-06T11:03:07.261Z,100748.05
2023-02-06T11:05:35.287Z,100756.24
2023-02-06T11:08:22.101Z,100759.33
2023-02-06T11:10:56.297Z,100756.59
2023-02-06T11:13:30.867Z,100760.75
2023-02-06T11:16:10.617Z,100753.95
2023-02-06T11:18:47.672Z,100759.66
2023-02-06T11:21:42.132Z,100754.63
2023-02-06T11:24:17.396Z,100752.95
2023-02-06T11:26:57.830Z,100751.45
2023-02-06T11:29:39.560Z,100746.59
2023-02-06T11:32:28.636Z,100745.20
2023-02-06T11:35:06.688Z,100736.39
2023-02-06T11:37:42.898Z,100733.09
2023-02-06T11:40:26.274Z,100735.56
2023-02-06T11:43:28.792Z,100731.47
2023-02-06T11:46:17.917Z,100733.08
2023-02-06T11:49:04.601Z,100731.25
2023-02-06T11:51:51.920Z,100731.25
2023-02-06T11:54:29.971Z,100728.11
2023-02-06T11:57:20.207Z,100739.28
2023-02-06T12:00:06.966Z,100730.90
2023-02-06T12:02:42.920Z,100731.14
2023-02-06T12:05:19.689Z,100728.24
2023-02-06T12:07:57.878Z,100731.77
2023-02-06T12:10:35.521Z,100731.77
2023-02-06T12:13:18.814Z,100732.88
2023-02-06T12:15:55.039Z,100739.90
2023-02-06T12:18:35.358Z,100739.02
2023-02-06T12:21:27.961Z,100740.87
2023-02-06T12:24:08.584Z,100735.73
2023-02-06T12:26:41.947Z,100737.97
2023-02-06T12:29:27.851Z,100737.69
2023-02-06T12:32:18.761Z,100737.02
2023-02-06T12:35:17.190Z,100746.95
2023-02-06T12:37:55.560Z,100738.30
2023-02-06T12:40:51.304Z,100742.70
2023-02-06T12:43:24.556Z,100744.88
2023-02-06T12:46:11.978Z,100750.56
2023-02-06T12:48:56.028Z,100763.61
2023-02-06T12:51:36.909Z,100764.39
2023-02-06T12:54:20.033Z,100765.91
2023-02-06T12:57:14.971Z,100771.81
2023-02-06T13:00:38.433Z,100775.87
2023-02-06T13:03:32.727Z,100773.19
2023-02-06T13:06:24.219Z,100789.56
2023-02-06T13:09:06.221Z,100787.56
2023-02-06T13:11:42.824Z,100782.09
2023-02-06T13:14:28.424Z,100783.63
2023-02-06T13:17:11.851Z,100789.31
2023-02-06T13:19:49.515Z,100788.63
2023-02-06T13:22:27.101Z,100791.02
2023-02-06T13:24:59.994Z,100795.21
2023-02-06T13:27:41.055Z,100802.77
2023-02-06T13:30:37.095Z,100805.55
2023-02-06T13:33:24.499Z,100812.51
2023-02-06T13:36:10.696Z,100809.64
2023-02-06T13:38:43.970Z,100814.80
2023-02-06T13:41:20.593Z,100809.50
2023-02-06T13:44:05.714Z,100809.67
2023-02-06T13:46:58.239Z,100818.64
2023-02-06T13:50:01.556Z,100835.48
2023-02-06T13:52:54.071Z,100828.72
2023-02-06T13:55:40.956Z,100834.95
2023-02-06T13:58:33.477Z,100833.16
2023-02-06T14:01:13.508Z,100828.96
2023-02-06T14:03:50.333Z,100827.71
2023-02-06T14:06:39.987Z,100828.27
2023-02-06T14:09:44.503Z,100829.55
2023-02-06T14:12:53.984Z,100827.36
2023-02-06T14:15:58.506Z,100842.21
2023-02-06T14:18:54.086Z,100841.86
2023-02-06T14:21:52.419Z,100842.20
2023-02-06T14:24:30.257Z,100848.09
2023-02-06T14:27:31.326Z,100846.98
2023-02-06T14:30:27.148Z,100852.28
2023-02-06T14:33:10.515Z,100854.14
2023-02-06T14:36:02.427Z,100854.55
2023-02-06T14:39:22.242Z,100849.80
2023-02-06T14:41:55.737Z,100854.22
2023-02-06T14:44:31.828Z,100866.11
2023-02-06T14:47:04.862Z,100864.69
2023-02-06T14:49:39.567Z,100877.67
2023-02-06T14:52:20.632Z,100871.84
2023-02-06T14:54:53.826Z,100866.74
2023-02-06T14:57:31.185Z,100876.25
2023-02-06T15:00:20.140Z,100871.53
2023-02-06T15:03:10.440Z,100883.05
2023-02-06T15:05:43.204Z,100885.43
2023-02-06T15:08:21.428Z,100885.97
2023-02-06T15:11:03.979Z,100886.71
2023-02-06T15:13:39.444Z,100895.88
2023-02-06T15:16:12.265Z,100907.77
2023-02-06T15:18:45.737Z,100907.75
2023-02-06T15:21:21.339Z,100921.47
2023-02-06T15:24:13.767Z,100916.00
2023-02-06T15:27:12.397Z,100924.25
2023-02-06T15:29:51.010Z,100927.15
2023-02-06T15:32:38.025Z,100932.83
2023-02-06T15:35:35.918Z,100932.63
2023-02-06T15:38:14.739Z,100936.67
2023-02-06T15:40:51.525Z,100924.06
2023-02-06T15:43:26.683Z,100920.94
2023-02-06T15:46:02.934Z,100927.70
2023-02-06T15:48:52.334Z,100923.51
2023-02-06T15:51:32.266Z,100929.17
2023-02-06T15:54:21.254Z,100927.17
2023-02-06T15:57:19.582Z,100933.03
2023-02-06T15:59:53.604Z,100927.18
2023-02-06T16:02:36.378Z,100931.00
2023-02-06T16:05:10.341Z,100937.58
2023-02-06T16:07:45.948Z,100927.36
2023-02-06T16:10:27.547Z,100925.71
2023-02-06T16:13:03.567Z,100924.97
2023-02-06T16:15:40.935Z,100924.07
2023-02-06T16:18:33.109Z,100920.77
2023-02-06T16:21:25.623Z,100920.58
2023-02-06T16:24:07.277Z,100927.52
2023-02-06T16:26:52.549Z,100927.72
2023-02-06T16:29:29.771Z,100922.23
2023-02-06T16:32:06.649Z,100924.05
2023-02-06T16:34:42.658Z,100928.97
2023-02-06T16:37:19.363Z,100933.71
2023-02-06T16:39:52.820Z,100931.69
2023-02-06T16:42:34.708Z,100929.14
2023-02-06T16:45:27.162Z,100921.66
2023-02-06T16:47:59.774Z,100918.70
2023-02-06T16:50:35.914Z,100925.80
2023-02-06T16:53:18.742Z,100934.38
2023-02-06T16:55:52.339Z,100930.69
2023-02-06T16:58:28.028Z,100927.19
2023-02-06T17:01:01.706Z,100931.92
2023-02-06T17:03:37.989Z,100934.99
2023-02-06T17:06:15.414Z,100934.98
2023-02-06T17:08:48.302Z,100931.16
2023-02-06T17:11:22.159Z,100934.60
2023-02-06T17:13:54.908Z,100942.59
2023-02-06T17:16:29.600Z,100941.69
2023-02-06T17:19:02.491Z,100948.21
2023-02-06T17:21:35.548Z,100942.72
2023-02-06T17:24:08.808Z,100939.64
2023-02-06T17:26:42.373Z,100938.52
2023-02-06T17:29:16.419Z,100952.91
2023-02-06T17:31:49.365Z,100948.69
2023-02-06T17:34:23.629Z,100949.73
2023-02-06T17:36:57.052Z,100944.60
2023-02-06T17:39:30.386Z,100942.92
2023-02-06T17:42:03.422Z,100948.16
2023-02-06T17:44:36.788Z,100947.95
2023-02-06T17:47:10.055Z,100949.17
2023-02-06T17:49:42.874Z,100970.84
2023-02-06T17:52:16.322Z,100949.83
2023-02-06T17:54:49.089Z,100960.16
2023-02-06T17:57:22.397Z,100951.39
2023-02-06T17:59:55.834Z,100948.05
2023-02-06T18:02:28.729Z,100955.11
2023-02-06T18:05:01.772Z,100951.61
2023-02-06T18:07:35.592Z,100939.34
2023-02-06T18:10:10.113Z,100935.50
2023-02-06T18:12:43.573Z,100928.01
2023-02-06T18:15:17.908Z,100929.03
2023-02-06T18:17:51.842Z,100931.73
2023-02-06T18:20:25.163Z,100927.68
2023-02-06T18:22:58.667Z,100933.45
2023-02-06T18:25:31.484Z,100927.00
2023-02-06T18:28:04.892Z,100936.80
2023-02-06T18:30:38.274Z,100935.13
2023-02-06T18:33:13.058Z,100942.73
2023-02-06T18:35:46.946Z,100939.26
2023-02-06T18:38:20.106Z,100941.77
2023-02-06T18:40:53.674Z,100959.37
2023-02-06T18:43:27.835Z,100949.89
2023-02-06T18:46:02.267Z,100953.67
2023-02-06T18:48:36.607Z,100958.87
2023-02-06T18:51:08.890Z,100959.41
2023-02-06T18:53:41.897Z,100960.61
2023-02-06T18:56:14.828Z,100960.58
2023-02-06T18:58:48.012Z,100958.73
2023-02-06T19:01:24.384Z,100959.80
2023-02-06T19:03:58.644Z,100960.84
2023-02-06T19:06:35.365Z,100966.47
2023-02-06T19:09:09.462Z,100977.84
2023-02-06T19:11:43.893Z,100969.80
2023-02-06T19:14:20.699Z,100970.34
2023-02-06T19:16:55.248Z,100982.13
2023-02-06T19:19:28.187Z,100975.23
2023-02-06T19:22:01.468Z,100978.47
2023-02-06T19:24:34.650Z,100977.57
2023-02-06T19:27:07.285Z,100978.84
2023-02-06T19:29:41.042Z,100974.62
2023-02-06T19:32:14.687Z,100988.58
2023-02-06T19:34:47.895Z,100987.23
2023-02-06T19:37:22.444Z,100975.03
2023-02-06T19:39:57.366Z,100988.25
2023-02-06T19:42:30.355Z,100998.80
2023-02-06T19:45:05.388Z,100998.22
2023-02-06T19:47:39.821Z,100991.66
2023-02-06T19:50:14.373Z,100984.03
2023-02-06T19:52:48.310Z,100994.70
2023-02-06T19:55:22.576Z,100996.91
2023-02-06T19:57:56.924Z,100991.45
2023-02-06T20:00:31.315Z,100987.89
2023-02-06T20:03:05.761Z,100987.23
2023-02-06T20:05:40.588Z,100988.41
2023-02-06T20:08:16.007Z,100988.08
2023-02-06T20:10:50.557Z,101009.02
2023-02-06T20:13:25.010Z,101009.72
2023-02-06T20:16:00.788Z,101011.72
2023-02-06T20:18:37.287Z,101014.11
2023-02-06T20:21:28.057Z,101016.48
2023-02-06T20:24:06.944Z,101013.53
2023-02-06T20:26:43.376Z,101006.77
2023-02-06T20:29:27.707Z,101011.92
2023-02-06T20:32:02.251Z,101016.16
2023-02-06T20:34:37.263Z,101005.44
2023-02-06T20:37:11.092Z,101024.94
2023-02-06T20:39:44.370Z,101028.42
2023-02-06T20:42:19.601Z,101029.90
2023-02-06T20:44:53.723Z,101023.66
2023-02-06T20:47:27.616Z,101022.39
2023-02-06T20:50:02.033Z,101022.55
2023-02-06T20:52:36.948Z,101020.51
2023-02-06T20:55:11.052Z,101018.12
2023-02-06T20:57:45.262Z,101009.22
2023-02-06T21:00:20.805Z,101004.62
2023-02-06T21:02:54.909Z,101010.78
2023-02-06T21:05:28.264Z,101003.35
2023-02-06T21:08:01.946Z,101014.30
2023-02-06T21:10:36.763Z,101010.13
2023-02-06T21:13:10.715Z,101016.85
2023-02-06T21:15:46.802Z,101010.45
2023-02-06T21:18:22.509Z,101005.16
2023-02-06T21:20:58.291Z,101002.91
2023-02-06T21:23:32.051Z,101000.81
2023-02-06T21:26:07.168Z,101000.56
2023-02-06T21:28:42.106Z,101009.22
2023-02-06T21:31:27.686Z,101006.76
2023-02-06T21:34:06.202Z,101003.80
2023-02-06T21:36:42.201Z,100999.24
2023-02-06T21:39:22.626Z,100996.50
2023-02-06T21:41:57.421Z,100996.29
2023-02-06T21:44:32.001Z,101003.14
2023-02-06T21:47:06.284Z,100996.86
2023-02-06T21:49:40.426Z,100992.95
2023-02-06T21:52:14.488Z,100990.86
2023-02-06T21:54:47.605Z,100988.39
2023-02-06T21:57:22.000Z,100983.63
2023-02-06T21:59:57.286Z,100981.67
2023-02-06T22:02:31.696Z,100979.58
2023-02-06T22:05:06.448Z,100980.92
2023-02-06T22:07:40.891Z,100973.19
2023-02-06T22:10:15.484Z,100977.85
2023-02-06T22:12:53.176Z,100967.06
2023-02-06T22:15:27.207Z,100970.45
2023-02-06T22:18:02.016Z,100970.03
2023-02-06T22:20:36.309Z,100967.98
2023-02-06T22:23:09.169Z,100964.69
2023-02-06T22:25:48.874Z,100963.54
2023-02-06T22:28:23.046Z,100958.25
2023-02-06T22:30:56.850Z,100953.53
2023-02-06T22:33:30.709Z,100949.88
2023-02-06T22:36:15.206Z,100954.39
2023-02-06T22:38:51.691Z,100958.35
2023-02-06T22:41:25.549Z,100958.89
2023-02-06T22:43:59.777Z,100957.30
2023-02-06T22:46:38.925Z,100960.38
2023-02-06T22:49:13.822Z,100963.85
2023-02-06T22:51:48.486Z,100966.39
2023-02-06T22:54:22.518Z,100969.63
2023-02-06T22:56:57.568Z,100962.37
2023-02-06T22:59:31.527Z,100961.44
2023-02-06T23:02:05.493Z,100963.06
2023-02-06T23:04:40.983Z,100962.16
2023-02-06T23:07:15.446Z,100957.08
2023-02-06T23:09:49.754Z,100956.35
2023-02-06T23:12:23.601Z,100962.49
2023-02-06T23:14:58.349Z,100959.63
2023-02-06T23:17:32.139Z,100965.61
2023-02-06T23:20:07.110Z,100967.94
2023-02-06T23:22:41.014Z,100972.23
2023-02-06T23:25:15.033Z,100967.67
2023-02-06T23:27:49.737Z,100975.08
2023-02-06T23:30:24.150Z,100971.96
2023-02-06T23:32:58.666Z,100972.17
2023-02-06T23:35:34.358Z,100971.96
2023-02-06T23:38:09.147Z,100974.38
2023-02-06T23:40:43.176Z,100972.75
2023-02-06T23:43:17.293Z,100972.23
2023-02-06T23:45:51.399Z,100971.17
2023-02-06T23:48:25.431Z,100977.94
2023-02-06T23:50:59.910Z,100981.48
2023-02-06T23:53:34.416Z,100974.97
2023-02-06T23:56:29.309Z,100983.44
2023-02-06T23:59:04.997Z,100980.46
